sensor_id;sensor_type;location;lat;lon;timestamp;P1;durP1;ratioP1;P2;durP2;ratioP2
35223;SDS011;21367;51.930;8.112;2022-11-20T00:02:05;47.22;;;19.38;;
35223;SDS011;21367;51.930;8.112;2022-11-20T00:07:09;53.90;;;20.20;;
35223;SDS011;21367;51.930;8.112;2022-11-20T00:12:15;62.10;;;20.95;;
35223;SDS011;21367;51.930;8.112;2022-11-20T00:17:22;58.40;;;21.42;;
35223;SDS011;21367;51.930;8.112;2022-11-20T00:22:25;59.33;;;22.40;;
35223;SDS011;21367;51.930;8.112;2022-11-20T00:27:29;63.67;;;22.58;;
35223;SDS011;21367;51.930;8.112;2022-11-20T00:32:36;53.42;;;20.27;;
35223;SDS011;21367;51.930;8.112;2022-11-20T00:37:39;48.42;;;20.13;;
35223;SDS011;21367;51.930;8.112;2022-11-20T00:42:43;50.95;;;19.02;;
35223;SDS011;21367;51.930;8.112;2022-11-20T00:47:50;45.78;;;18.67;;
35223;SDS011;21367;51.930;8.112;2022-11-20T00:52:56;48.15;;;18.52;;
35223;SDS011;21367;51.930;8.112;2022-11-20T00:58:01;45.63;;;18.02;;
35223;SDS011;21367;51.930;8.112;2022-11-20T01:03:07;41.60;;;17.65;;
35223;SDS011;21367;51.930;8.112;2022-11-20T01:08:11;47.00;;;18.95;;
35223;SDS011;21367;51.930;8.112;2022-11-20T01:13:15;41.85;;;17.45;;
35223;SDS011;21367;51.930;8.112;2022-11-20T01:18:34;44.72;;;16.38;;
35223;SDS011;21367;51.930;8.112;2022-11-20T01:23:39;43.80;;;18.23;;
35223;SDS011;21367;51.930;8.112;2022-11-20T01:28:44;42.53;;;17.77;;
35223;SDS011;21367;51.930;8.112;2022-11-20T01:33:51;48.95;;;17.70;;
35223;SDS011;21367;51.930;8.112;2022-11-20T01:38:56;48.63;;;19.05;;
35223;SDS011;21367;51.930;8.112;2022-11-20T01:44:01;46.03;;;18.30;;
35223;SDS011;21367;51.930;8.112;2022-11-20T01:49:11;55.63;;;17.25;;
35223;SDS011;21367;51.930;8.112;2022-11-20T01:54:21;50.42;;;18.40;;
35223;SDS011;21367;51.930;8.112;2022-11-20T01:59:33;43.85;;;17.52;;
35223;SDS011;21367;51.930;8.112;2022-11-20T02:04:42;48.03;;;17.80;;
35223;SDS011;21367;51.930;8.112;2022-11-20T02:09:47;42.65;;;16.67;;
35223;SDS011;21367;51.930;8.112;2022-11-20T02:14:52;42.60;;;18.00;;
35223;SDS011;21367;51.930;8.112;2022-11-20T02:20:04;46.20;;;17.50;;
35223;SDS011;21367;51.930;8.112;2022-11-20T02:25:14;46.33;;;17.70;;
35223;SDS011;21367;51.930;8.112;2022-11-20T02:30:22;41.53;;;17.98;;
35223;SDS011;21367;51.930;8.112;2022-11-20T02:35:39;46.17;;;16.70;;
35223;SDS011;21367;51.930;8.112;2022-11-20T02:40:52;52.13;;;18.30;;
35223;SDS011;21367;51.930;8.112;2022-11-20T02:45:58;49.25;;;17.40;;
35223;SDS011;21367;51.930;8.112;2022-11-20T02:51:03;42.40;;;16.98;;
35223;SDS011;21367;51.930;8.112;2022-11-20T02:56:10;45.83;;;17.27;;
35223;SDS011;21367;51.930;8.112;2022-11-20T03:01:15;47.38;;;17.40;;
35223;SDS011;21367;51.930;8.112;2022-11-20T03:06:19;50.08;;;16.98;;
35223;SDS011;21367;51.930;8.112;2022-11-20T03:11:26;47.45;;;17.23;;
35223;SDS011;21367;51.930;8.112;2022-11-20T03:16:30;46.13;;;17.15;;
35223;SDS011;21367;51.930;8.112;2022-11-20T03:21:37;37.72;;;16.05;;
35223;SDS011;21367;51.930;8.112;2022-11-20T03:26:45;39.67;;;16.03;;
35223;SDS011;21367;51.930;8.112;2022-11-20T03:31:49;43.42;;;16.27;;
35223;SDS011;21367;51.930;8.112;2022-11-20T03:36:54;39.58;;;15.93;;
35223;SDS011;21367;51.930;8.112;2022-11-20T03:42:07;36.28;;;16.00;;
35223;SDS011;21367;51.930;8.112;2022-11-20T03:47:34;42.13;;;16.13;;
35223;SDS011;21367;51.930;8.112;2022-11-20T03:52:39;41.15;;;15.82;;
35223;SDS011;21367;51.930;8.112;2022-11-20T03:57:48;34.97;;;14.82;;
35223;SDS011;21367;51.930;8.112;2022-11-20T04:02:52;43.38;;;14.95;;
35223;SDS011;21367;51.930;8.112;2022-11-20T04:07:56;36.70;;;14.48;;
35223;SDS011;21367;51.930;8.112;2022-11-20T04:13:03;38.10;;;13.68;;
35223;SDS011;21367;51.930;8.112;2022-11-20T04:18:11;32.97;;;13.45;;
35223;SDS011;21367;51.930;8.112;2022-11-20T04:23:15;40.00;;;13.68;;
35223;SDS011;21367;51.930;8.112;2022-11-20T04:28:21;31.02;;;13.27;;
35223;SDS011;21367;51.930;8.112;2022-11-20T04:33:26;39.55;;;14.98;;
35223;SDS011;21367;51.930;8.112;2022-11-20T04:38:32;42.38;;;15.63;;
35223;SDS011;21367;51.930;8.112;2022-11-20T04:43:45;39.58;;;13.82;;
35223;SDS011;21367;51.930;8.112;2022-11-20T04:48:52;33.65;;;14.73;;
35223;SDS011;21367;51.930;8.112;2022-11-20T04:53:57;41.70;;;15.68;;
35223;SDS011;21367;51.930;8.112;2022-11-20T04:59:16;40.00;;;13.85;;
35223;SDS011;21367;51.930;8.112;2022-11-20T05:04:22;38.92;;;14.32;;
35223;SDS011;21367;51.930;8.112;2022-11-20T05:09:28;33.35;;;13.93;;
35223;SDS011;21367;51.930;8.112;2022-11-20T05:14:39;37.85;;;14.73;;
35223;SDS011;21367;51.930;8.112;2022-11-20T05:19:49;39.78;;;16.17;;
35223;SDS011;21367;51.930;8.112;2022-11-20T05:25:11;37.50;;;15.05;;
35223;SDS011;21367;51.930;8.112;2022-11-20T05:30:19;35.63;;;14.38;;
35223;SDS011;21367;51.930;8.112;2022-11-20T05:35:24;40.92;;;14.48;;
35223;SDS011;21367;51.930;8.112;2022-11-20T05:40:29;41.70;;;16.10;;
35223;SDS011;21367;51.930;8.112;2022-11-20T05:45:35;37.63;;;16.08;;
35223;SDS011;21367;51.930;8.112;2022-11-20T05:50:41;49.95;;;17.40;;
35223;SDS011;21367;51.930;8.112;2022-11-20T05:55:45;42.90;;;16.42;;
35223;SDS011;21367;51.930;8.112;2022-11-20T06:00:53;37.75;;;16.88;;
35223;SDS011;21367;51.930;8.112;2022-11-20T06:05:58;37.17;;;16.25;;
35223;SDS011;21367;51.930;8.112;2022-11-20T06:11:07;46.80;;;16.73;;
35223;SDS011;21367;51.930;8.112;2022-11-20T06:16:21;57.15;;;19.40;;
35223;SDS011;21367;51.930;8.112;2022-11-20T06:21:29;102.97;;;27.95;;
35223;SDS011;21367;51.930;8.112;2022-11-20T06:26:33;51.67;;;19.55;;
35223;SDS011;21367;51.930;8.112;2022-11-20T06:31:40;57.22;;;19.58;;
35223;SDS011;21367;51.930;8.112;2022-11-20T06:36:47;49.60;;;19.05;;
35223;SDS011;21367;51.930;8.112;2022-11-20T06:41:51;49.28;;;18.08;;
35223;SDS011;21367;51.930;8.112;2022-11-20T06:47:00;52.33;;;18.60;;
35223;SDS011;21367;51.930;8.112;2022-11-20T06:52:04;52.78;;;18.65;;
35223;SDS011;21367;51.930;8.112;2022-11-20T06:57:08;50.05;;;19.10;;
35223;SDS011;21367;51.930;8.112;2022-11-20T07:02:16;46.83;;;19.10;;
35223;SDS011;21367;51.930;8.112;2022-11-20T07:07:19;45.17;;;19.10;;
35223;SDS011;21367;51.930;8.112;2022-11-20T07:12:25;45.22;;;17.77;;
35223;SDS011;21367;51.930;8.112;2022-11-20T07:17:32;48.88;;;19.35;;
35223;SDS011;21367;51.930;8.112;2022-11-20T07:22:36;45.97;;;17.25;;
35223;SDS011;21367;51.930;8.112;2022-11-20T07:27:40;48.10;;;18.45;;
35223;SDS011;21367;51.930;8.112;2022-11-20T07:32:50;39.55;;;17.63;;
35223;SDS011;21367;51.930;8.112;2022-11-20T07:37:55;45.53;;;17.50;;
35223;SDS011;21367;51.930;8.112;2022-11-20T07:42:59;58.35;;;21.27;;
35223;SDS011;21367;51.930;8.112;2022-11-20T07:48:07;39.45;;;17.05;;
35223;SDS011;21367;51.930;8.112;2022-11-20T07:53:11;35.25;;;15.52;;
35223;SDS011;21367;51.930;8.112;2022-11-20T07:58:21;49.20;;;18.17;;
35223;SDS011;21367;51.930;8.112;2022-11-20T08:03:27;48.85;;;19.80;;
35223;SDS011;21367;51.930;8.112;2022-11-20T08:08:32;64.70;;;18.85;;
35223;SDS011;21367;51.930;8.112;2022-11-20T08:13:36;49.05;;;18.70;;
35223;SDS011;21367;51.930;8.112;2022-11-20T08:23:58;45.47;;;18.25;;
35223;SDS011;21367;51.930;8.112;2022-11-20T08:29:06;50.90;;;18.50;;
35223;SDS011;21367;51.930;8.112;2022-11-20T08:34:13;43.80;;;18.25;;
35223;SDS011;21367;51.930;8.112;2022-11-20T08:39:17;49.17;;;18.90;;
35223;SDS011;21367;51.930;8.112;2022-11-20T08:44:22;53.75;;;19.05;;
35223;SDS011;21367;51.930;8.112;2022-11-20T08:49:29;46.70;;;18.90;;
35223;SDS011;21367;51.930;8.112;2022-11-20T08:54:33;50.17;;;20.38;;
35223;SDS011;21367;51.930;8.112;2022-11-20T08:59:37;46.60;;;20.35;;
35223;SDS011;21367;51.930;8.112;2022-11-20T09:04:44;46.45;;;20.13;;
35223;SDS011;21367;51.930;8.112;2022-11-20T09:09:48;50.45;;;21.80;;
35223;SDS011;21367;51.930;8.112;2022-11-20T09:14:52;51.00;;;20.80;;
35223;SDS011;21367;51.930;8.112;2022-11-20T09:20:00;57.20;;;23.07;;
35223;SDS011;21367;51.930;8.112;2022-11-20T09:25:05;48.20;;;20.00;;
35223;SDS011;21367;51.930;8.112;2022-11-20T09:30:10;45.63;;;20.77;;
35223;SDS011;21367;51.930;8.112;2022-11-20T09:35:21;50.35;;;20.33;;
35223;SDS011;21367;51.930;8.112;2022-11-20T09:40:26;44.20;;;19.70;;
35223;SDS011;21367;51.930;8.112;2022-11-20T09:45:45;47.65;;;21.45;;
35223;SDS011;21367;51.930;8.112;2022-11-20T09:51:02;52.13;;;20.58;;
35223;SDS011;21367;51.930;8.112;2022-11-20T09:56:15;45.17;;;20.52;;
35223;SDS011;21367;51.930;8.112;2022-11-20T10:01:22;46.83;;;20.17;;
35223;SDS011;21367;51.930;8.112;2022-11-20T10:06:35;45.20;;;19.63;;
35223;SDS011;21367;51.930;8.112;2022-11-20T10:11:46;42.55;;;19.25;;
35223;SDS011;21367;51.930;8.112;2022-11-20T10:16:58;46.95;;;19.92;;
35223;SDS011;21367;51.930;8.112;2022-11-20T10:22:11;42.97;;;19.67;;
35223;SDS011;21367;51.930;8.112;2022-11-20T10:27:32;40.50;;;18.45;;
35223;SDS011;21367;51.930;8.112;2022-11-20T10:32:45;46.28;;;19.42;;
35223;SDS011;21367;51.930;8.112;2022-11-20T10:37:55;54.40;;;22.13;;
35223;SDS011;21367;51.930;8.112;2022-11-20T10:43:03;52.15;;;21.77;;
35223;SDS011;21367;51.930;8.112;2022-11-20T10:48:15;51.97;;;22.58;;
35223;SDS011;21367;51.930;8.112;2022-11-20T10:53:28;58.38;;;24.48;;
35223;SDS011;21367;51.930;8.112;2022-11-20T10:58:45;47.70;;;21.92;;
35223;SDS011;21367;51.930;8.112;2022-11-20T11:03:56;44.60;;;20.70;;
35223;SDS011;21367;51.930;8.112;2022-11-20T11:09:06;47.92;;;19.42;;
35223;SDS011;21367;51.930;8.112;2022-11-20T11:14:16;47.53;;;19.73;;
35223;SDS011;21367;51.930;8.112;2022-11-20T11:19:20;44.92;;;18.27;;
35223;SDS011;21367;51.930;8.112;2022-11-20T11:24:28;42.70;;;17.48;;
35223;SDS011;21367;51.930;8.112;2022-11-20T11:29:33;43.00;;;18.13;;
35223;SDS011;21367;51.930;8.112;2022-11-20T11:34:44;43.67;;;18.50;;
35223;SDS011;21367;51.930;8.112;2022-11-20T11:39:51;47.38;;;19.38;;
35223;SDS011;21367;51.930;8.112;2022-11-20T11:44:56;45.83;;;19.08;;
35223;SDS011;21367;51.930;8.112;2022-11-20T11:50:15;41.78;;;16.52;;
35223;SDS011;21367;51.930;8.112;2022-11-20T11:55:28;40.35;;;16.73;;
35223;SDS011;21367;51.930;8.112;2022-11-20T12:00:36;43.08;;;17.25;;
35223;SDS011;21367;51.930;8.112;2022-11-20T12:05:45;39.28;;;16.20;;
35223;SDS011;21367;51.930;8.112;2022-11-20T12:10:56;42.05;;;17.17;;
35223;SDS011;21367;51.930;8.112;2022-11-20T12:16:08;42.20;;;17.15;;
35223;SDS011;21367;51.930;8.112;2022-11-20T12:21:25;40.08;;;17.92;;
35223;SDS011;21367;51.930;8.112;2022-11-20T12:26:48;40.47;;;18.05;;
35223;SDS011;21367;51.930;8.112;2022-11-20T12:37:45;36.40;;;15.60;;
35223;SDS011;21367;51.930;8.112;2022-11-20T12:43:09;34.17;;;14.27;;
35223;SDS011;21367;51.930;8.112;2022-11-20T12:54:26;30.35;;;12.63;;
35223;SDS011;21367;51.930;8.112;2022-11-20T13:00:01;31.10;;;14.10;;
35223;SDS011;21367;51.930;8.112;2022-11-20T13:05:27;25.55;;;11.63;;
35223;SDS011;21367;51.930;8.112;2022-11-20T13:11:07;25.90;;;12.75;;
35223;SDS011;21367;51.930;8.112;2022-11-20T13:21:35;30.92;;;14.13;;
35223;SDS011;21367;51.930;8.112;2022-11-20T13:26:40;37.50;;;14.85;;
35223;SDS011;21367;51.930;8.112;2022-11-20T13:31:47;35.03;;;16.05;;
35223;SDS011;21367;51.930;8.112;2022-11-20T13:42:29;34.08;;;14.95;;
35223;SDS011;21367;51.930;8.112;2022-11-20T13:47:46;31.77;;;14.65;;
35223;SDS011;21367;51.930;8.112;2022-11-20T13:52:55;33.92;;;14.55;;
35223;SDS011;21367;51.930;8.112;2022-11-20T13:58:19;40.45;;;15.55;;
35223;SDS011;21367;51.930;8.112;2022-11-20T14:03:35;34.03;;;15.23;;
35223;SDS011;21367;51.930;8.112;2022-11-20T14:08:39;32.88;;;15.60;;
35223;SDS011;21367;51.930;8.112;2022-11-20T14:13:56;36.90;;;15.70;;
35223;SDS011;21367;51.930;8.112;2022-11-20T14:19:22;43.05;;;17.02;;
35223;SDS011;21367;51.930;8.112;2022-11-20T14:24:34;34.92;;;15.02;;
35223;SDS011;21367;51.930;8.112;2022-11-20T14:29:41;34.08;;;14.77;;
35223;SDS011;21367;51.930;8.112;2022-11-20T14:34:49;37.35;;;15.77;;
35223;SDS011;21367;51.930;8.112;2022-11-20T14:39:54;37.50;;;17.27;;
35223;SDS011;21367;51.930;8.112;2022-11-20T14:44:59;36.90;;;16.55;;
35223;SDS011;21367;51.930;8.112;2022-11-20T14:50:08;50.45;;;21.35;;
35223;SDS011;21367;51.930;8.112;2022-11-20T14:55:25;48.63;;;21.30;;
35223;SDS011;21367;51.930;8.112;2022-11-20T15:00:30;65.15;;;26.05;;
35223;SDS011;21367;51.930;8.112;2022-11-20T15:05:47;63.85;;;26.75;;
35223;SDS011;21367;51.930;8.112;2022-11-20T15:10:53;92.65;;;40.50;;
35223;SDS011;21367;51.930;8.112;2022-11-20T15:21:12;56.50;;;23.25;;
35223;SDS011;21367;51.930;8.112;2022-11-20T15:26:18;59.40;;;24.45;;
35223;SDS011;21367;51.930;8.112;2022-11-20T15:31:27;56.35;;;25.05;;
35223;SDS011;21367;51.930;8.112;2022-11-20T15:41:42;60.28;;;24.60;;
35223;SDS011;21367;51.930;8.112;2022-11-20T15:46:46;51.63;;;22.17;;
35223;SDS011;21367;51.930;8.112;2022-11-20T15:51:52;55.65;;;23.83;;
35223;SDS011;21367;51.930;8.112;2022-11-20T15:56:56;64.50;;;27.48;;
35223;SDS011;21367;51.930;8.112;2022-11-20T16:02:01;67.18;;;27.58;;
35223;SDS011;21367;51.930;8.112;2022-11-20T16:07:07;59.33;;;24.42;;
35223;SDS011;21367;51.930;8.112;2022-11-20T16:17:36;78.00;;;28.55;;
35223;SDS011;21367;51.930;8.112;2022-11-20T16:22:49;70.50;;;28.67;;
35223;SDS011;21367;51.930;8.112;2022-11-20T16:27:53;61.78;;;24.98;;
35223;SDS011;21367;51.930;8.112;2022-11-20T16:32:56;58.67;;;25.70;;
35223;SDS011;21367;51.930;8.112;2022-11-20T16:43:24;58.08;;;23.10;;
35223;SDS011;21367;51.930;8.112;2022-11-20T16:48:27;60.30;;;23.33;;
35223;SDS011;21367;51.930;8.112;2022-11-20T16:53:34;65.45;;;26.60;;
35223;SDS011;21367;51.930;8.112;2022-11-20T16:58:38;70.63;;;26.92;;
35223;SDS011;21367;51.930;8.112;2022-11-20T17:03:43;70.05;;;27.73;;
35223;SDS011;21367;51.930;8.112;2022-11-20T17:08:52;54.37;;;24.13;;
35223;SDS011;21367;51.930;8.112;2022-11-20T17:13:57;57.55;;;24.77;;
35223;SDS011;21367;51.930;8.112;2022-11-20T17:19:03;73.20;;;29.80;;
35223;SDS011;21367;51.930;8.112;2022-11-20T17:24:11;69.43;;;27.73;;
35223;SDS011;21367;51.930;8.112;2022-11-20T17:29:16;64.82;;;26.23;;
35223;SDS011;21367;51.930;8.112;2022-11-20T17:34:23;55.15;;;24.52;;
35223;SDS011;21367;51.930;8.112;2022-11-20T17:39:30;61.42;;;25.75;;
35223;SDS011;21367;51.930;8.112;2022-11-20T17:44:35;64.72;;;26.13;;
35223;SDS011;21367;51.930;8.112;2022-11-20T17:49:41;64.60;;;25.30;;
35223;SDS011;21367;51.930;8.112;2022-11-20T17:54:48;61.53;;;24.02;;
35223;SDS011;21367;51.930;8.112;2022-11-20T17:59:55;64.40;;;24.13;;
35223;SDS011;21367;51.930;8.112;2022-11-20T18:05:02;58.83;;;24.05;;
35223;SDS011;21367;51.930;8.112;2022-11-20T18:10:10;52.07;;;22.33;;
35223;SDS011;21367;51.930;8.112;2022-11-20T18:15:14;59.75;;;22.83;;
35223;SDS011;21367;51.930;8.112;2022-11-20T18:20:18;57.10;;;24.15;;
35223;SDS011;21367;51.930;8.112;2022-11-20T18:25:24;72.97;;;30.63;;
35223;SDS011;21367;51.930;8.112;2022-11-20T18:30:28;72.07;;;27.10;;
35223;SDS011;21367;51.930;8.112;2022-11-20T18:35:33;94.22;;;37.72;;
35223;SDS011;21367;51.930;8.112;2022-11-20T18:40:46;114.38;;;46.97;;
35223;SDS011;21367;51.930;8.112;2022-11-20T18:45:50;98.20;;;35.13;;
35223;SDS011;21367;51.930;8.112;2022-11-20T18:50:54;82.50;;;30.00;;
35223;SDS011;21367;51.930;8.112;2022-11-20T18:56:00;66.40;;;25.42;;
35223;SDS011;21367;51.930;8.112;2022-11-20T19:01:06;72.68;;;26.80;;
35223;SDS011;21367;51.930;8.112;2022-11-20T19:06:12;87.55;;;29.05;;
35223;SDS011;21367;51.930;8.112;2022-11-20T19:11:18;74.32;;;27.77;;
35223;SDS011;21367;51.930;8.112;2022-11-20T19:16:22;78.55;;;26.92;;
35223;SDS011;21367;51.930;8.112;2022-11-20T19:21:26;73.25;;;23.50;;
35223;SDS011;21367;51.930;8.112;2022-11-20T19:26:33;80.43;;;26.15;;
35223;SDS011;21367;51.930;8.112;2022-11-20T19:31:39;66.53;;;25.00;;
35223;SDS011;21367;51.930;8.112;2022-11-20T19:36:44;92.53;;;29.83;;
35223;SDS011;21367;51.930;8.112;2022-11-20T19:41:50;83.43;;;29.08;;
35223;SDS011;21367;51.930;8.112;2022-11-20T19:46:54;80.03;;;28.48;;
35223;SDS011;21367;51.930;8.112;2022-11-20T19:52:01;77.30;;;26.65;;
35223;SDS011;21367;51.930;8.112;2022-11-20T19:57:08;73.05;;;26.85;;
35223;SDS011;21367;51.930;8.112;2022-11-20T20:02:11;77.90;;;26.10;;
35223;SDS011;21367;51.930;8.112;2022-11-20T20:07:15;81.25;;;26.70;;
35223;SDS011;21367;51.930;8.112;2022-11-20T20:12:22;78.28;;;26.42;;
35223;SDS011;21367;51.930;8.112;2022-11-20T20:17:28;75.80;;;25.02;;
35223;SDS011;21367;51.930;8.112;2022-11-20T20:22:34;82.40;;;26.98;;
35223;SDS011;21367;51.930;8.112;2022-11-20T20:27:41;62.10;;;22.80;;
35223;SDS011;21367;51.930;8.112;2022-11-20T20:32:45;66.63;;;22.98;;
35223;SDS011;21367;51.930;8.112;2022-11-20T20:37:48;64.00;;;24.95;;
35223;SDS011;21367;51.930;8.112;2022-11-20T20:42:55;60.95;;;22.50;;
35223;SDS011;21367;51.930;8.112;2022-11-20T20:47:59;62.83;;;22.70;;
35223;SDS011;21367;51.930;8.112;2022-11-20T20:53:03;67.22;;;21.98;;
35223;SDS011;21367;51.930;8.112;2022-11-20T20:58:09;70.82;;;23.50;;
35223;SDS011;21367;51.930;8.112;2022-11-20T21:03:15;72.97;;;23.88;;
35223;SDS011;21367;51.930;8.112;2022-11-20T21:08:19;71.60;;;24.20;;
35223;SDS011;21367;51.930;8.112;2022-11-20T21:18:37;75.57;;;23.83;;
35223;SDS011;21367;51.930;8.112;2022-11-20T21:23:43;66.65;;;23.88;;
35223;SDS011;21367;51.930;8.112;2022-11-20T21:28:52;64.00;;;23.10;;
35223;SDS011;21367;51.930;8.112;2022-11-20T21:33:58;60.00;;;22.98;;
35223;SDS011;21367;51.930;8.112;2022-11-20T21:39:02;62.03;;;22.13;;
35223;SDS011;21367;51.930;8.112;2022-11-20T21:44:11;51.20;;;18.83;;
35223;SDS011;21367;51.930;8.112;2022-11-20T21:49:17;50.47;;;19.15;;
35223;SDS011;21367;51.930;8.112;2022-11-20T21:54:21;53.72;;;18.58;;
35223;SDS011;21367;51.930;8.112;2022-11-20T21:59:28;49.05;;;20.08;;
35223;SDS011;21367;51.930;8.112;2022-11-20T22:04:32;51.03;;;20.15;;
35223;SDS011;21367;51.930;8.112;2022-11-20T22:09:37;50.67;;;19.70;;
35223;SDS011;21367;51.930;8.112;2022-11-20T22:14:44;47.28;;;18.38;;
35223;SDS011;21367;51.930;8.112;2022-11-20T22:19:48;43.40;;;17.98;;
35223;SDS011;21367;51.930;8.112;2022-11-20T22:24:52;42.78;;;17.40;;
35223;SDS011;21367;51.930;8.112;2022-11-20T22:29:58;36.25;;;15.82;;
35223;SDS011;21367;51.930;8.112;2022-11-20T22:35:04;39.08;;;16.15;;
35223;SDS011;21367;51.930;8.112;2022-11-20T22:40:08;44.00;;;17.27;;
35223;SDS011;21367;51.930;8.112;2022-11-20T22:45:16;38.25;;;15.70;;
35223;SDS011;21367;51.930;8.112;2022-11-20T22:50:20;34.92;;;15.75;;
35223;SDS011;21367;51.930;8.112;2022-11-20T22:55:24;39.35;;;16.33;;
35223;SDS011;21367;51.930;8.112;2022-11-20T23:00:31;50.63;;;19.70;;
35223;SDS011;21367;51.930;8.112;2022-11-20T23:05:35;49.45;;;19.15;;
35223;SDS011;21367;51.930;8.112;2022-11-20T23:10:39;60.35;;;23.80;;
35223;SDS011;21367;51.930;8.112;2022-11-20T23:15:46;55.17;;;22.45;;
35223;SDS011;21367;51.930;8.112;2022-11-20T23:20:52;57.80;;;24.08;;
35223;SDS011;21367;51.930;8.112;2022-11-20T23:25:58;63.05;;;23.95;;
35223;SDS011;21367;51.930;8.112;2022-11-20T23:31:06;64.32;;;24.67;;
35223;SDS011;21367;51.930;8.112;2022-11-20T23:36:11;58.83;;;22.85;;
35223;SDS011;21367;51.930;8.112;2022-11-20T23:41:15;66.72;;;24.63;;
35223;SDS011;21367;51.930;8.112;2022-11-20T23:46:24;68.03;;;25.88;;
35223;SDS011;21367;51.930;8.112;2022-11-20T23:51:28;69.63;;;26.75;;
35223;SDS011;21367;51.930;8.112;2022-11-20T23:56:32;72.35;;;26.58;;
